createdAt,value
2022-10-23T00:02:03.140Z,12.75
2022-10-23T00:06:05.680Z,12.74
2022-10-23T00:10:07.893Z,12.70
2022-10-23T00:14:09.928Z,12.69
2022-10-23T00:18:11.690Z,12.69
2022-10-23T00:22:13.429Z,12.66
2022-10-23T00:26:16.004Z,12.63
2022-10-23T00:30:17.724Z,12.57
2022-10-23T00:34:19.938Z,12.52
2022-10-23T00:38:22.763Z,12.51
2022-10-23T00:42:24.545Z,12.49
2022-10-23T00:46:26.595Z,12.47
2022-10-23T00:50:31.231Z,12.44
2022-10-23T00:54:43.730Z,12.43
2022-10-23T00:58:45.468Z,12.43
2022-10-23T01:02:47.439Z,12.41
2022-10-23T01:06:55.152Z,12.38
2022-10-23T01:11:06.047Z,12.38
2022-10-23T01:15:29.661Z,12.37
2022-10-23T01:19:49.257Z,12.31
2022-10-23T01:24:09.285Z,12.27
2022-10-23T01:28:21.743Z,12.25
2022-10-23T01:32:51.112Z,12.24
2022-10-23T01:36:55.520Z,12.25
2022-10-23T01:41:07.165Z,12.24
2022-10-23T01:45:19.290Z,12.22
2022-10-23T01:49:22.493Z,12.21
2022-10-23T01:53:33.559Z,12.22
2022-10-23T01:57:40.138Z,12.22
2022-10-23T02:01:46.872Z,12.22
2022-10-23T02:05:49.256Z,12.24
2022-10-23T02:09:51.093Z,12.24
2022-10-23T02:14:34.019Z,12.24
2022-10-23T02:19:00.641Z,12.24
2022-10-23T02:23:26.546Z,12.19
2022-10-23T02:27:40.032Z,12.19
2022-10-23T02:31:42.900Z,12.18
2022-10-23T02:35:46.539Z,12.16
2022-10-23T02:39:58.537Z,12.17
2022-10-23T02:44:28.183Z,12.18
2022-10-23T02:48:41.760Z,12.17
2022-10-23T02:53:23.241Z,12.17
2022-10-23T02:57:35.762Z,12.17
2022-10-23T03:02:03.819Z,12.14
2022-10-23T03:06:06.241Z,12.11
2022-10-23T03:10:10.541Z,12.09
2022-10-23T03:14:13.808Z,12.09
2022-10-23T03:18:15.548Z,12.12
2022-10-23T03:22:22.375Z,12.12
2022-10-23T03:26:24.164Z,12.12
2022-10-23T03:30:25.861Z,12.11
2022-10-23T03:34:29.751Z,12.13
2022-10-23T03:38:32.052Z,12.14
2022-10-23T03:42:34.124Z,12.16
2022-10-23T03:46:35.822Z,12.11
2022-10-23T03:50:37.743Z,12.07
2022-10-23T03:54:40.330Z,12.01
2022-10-23T03:58:42.053Z,12.01
2022-10-23T04:02:44.110Z,11.98
2022-10-23T04:06:46.334Z,11.96
2022-10-23T04:10:48.151Z,11.92
2022-10-23T04:14:51.453Z,11.91
2022-10-23T04:18:53.974Z,11.92
2022-10-23T04:22:55.637Z,11.88
2022-10-23T04:26:57.310Z,11.90
2022-10-23T04:31:04.250Z,11.89
2022-10-23T04:35:06.834Z,11.91
2022-10-23T04:39:09.000Z,11.92
2022-10-23T04:43:11.981Z,11.96
2022-10-23T04:47:14.886Z,12.00
2022-10-23T04:51:29.557Z,12.04
2022-10-23T04:55:48.187Z,12.08
2022-10-23T04:59:55.896Z,12.12
2022-10-23T05:03:57.742Z,12.16
2022-10-23T05:07:59.528Z,12.22
2022-10-23T05:12:21.542Z,12.26
2022-10-23T05:16:41.939Z,12.29
2022-10-23T05:20:50.365Z,12.34
2022-10-23T05:24:52.167Z,12.33
2022-10-23T05:28:58.025Z,12.33
2022-10-23T05:33:02.360Z,12.33
2022-10-23T05:37:09.312Z,12.32
2022-10-23T05:41:13.329Z,12.33
2022-10-23T05:45:16.231Z,12.33
2022-10-23T05:49:36.568Z,12.35
2022-10-23T05:53:56.914Z,12.40
2022-10-23T05:58:06.996Z,12.42
2022-10-23T06:02:38.092Z,12.44
2022-10-23T06:06:47.757Z,12.45
2022-10-23T06:10:49.547Z,12.44
2022-10-23T06:14:51.998Z,12.43
2022-10-23T06:18:55.907Z,12.43
2022-10-23T06:22:58.563Z,12.43
2022-10-23T06:27:20.311Z,12.44
2022-10-23T06:31:26.883Z,12.44
2022-10-23T06:35:30.096Z,12.45
2022-10-23T06:39:32.890Z,12.45
2022-10-23T06:43:42.216Z,12.44
2022-10-23T06:48:10.222Z,12.45
2022-10-23T06:52:18.397Z,12.45
2022-10-23T06:56:30.488Z,12.47
2022-10-23T07:00:35.324Z,12.49
2022-10-23T07:04:37.156Z,12.51
2022-10-23T07:08:45.619Z,12.52
2022-10-23T07:13:08.773Z,12.56
2022-10-23T07:17:33.604Z,12.58
2022-10-23T07:21:35.964Z,12.61
2022-10-23T07:25:56.347Z,12.64
2022-10-23T07:29:58.474Z,12.66
2022-10-23T07:34:04.026Z,12.70
2022-10-23T07:38:05.811Z,12.75
2022-10-23T07:42:12.074Z,12.78
2022-10-23T07:46:15.553Z,12.82
2022-10-23T07:50:18.512Z,12.85
2022-10-23T07:54:20.693Z,12.89
2022-10-23T07:58:37.384Z,12.90
2022-10-23T08:02:45.280Z,12.95
2022-10-23T08:06:47.284Z,12.99
2022-10-23T08:10:51.704Z,13.02
2022-10-23T08:15:00.221Z,13.06
2022-10-23T08:19:10.659Z,13.09
2022-10-23T08:23:18.544Z,13.13
2022-10-23T08:27:20.495Z,13.15
2022-10-23T08:31:24.216Z,13.19
2022-10-23T08:35:46.631Z,13.22
2022-10-23T08:39:53.285Z,13.24
2022-10-23T08:44:11.878Z,13.27
2022-10-23T08:48:33.239Z,13.29
2022-10-23T08:53:23.874Z,13.31
2022-10-23T08:57:34.569Z,13.33
2022-10-23T09:01:41.544Z,13.34
2022-10-23T09:06:09.583Z,13.39
2022-10-23T09:10:33.198Z,13.43
2022-10-23T09:14:37.651Z,13.48
2022-10-23T09:18:42.049Z,13.54
2022-10-23T09:22:44.539Z,13.60
2022-10-23T09:26:49.687Z,13.65
2022-10-23T09:30:52.533Z,13.69
2022-10-23T09:34:55.428Z,13.74
2022-10-23T09:38:59.432Z,13.79
2022-10-23T09:43:04.269Z,13.86
2022-10-23T09:47:05.919Z,13.90
2022-10-23T09:51:21.489Z,13.93
2022-10-23T09:55:25.848Z,13.93
2022-10-23T09:59:32.325Z,13.95
2022-10-23T10:03:34.077Z,13.95
2022-10-23T10:07:42.135Z,13.94
2022-10-23T10:11:57.803Z,13.98
2022-10-23T10:16:31.414Z,14.00
2022-10-23T10:20:42.897Z,14.04
2022-10-23T10:24:50.475Z,14.06
2022-10-23T10:29:07.333Z,14.09
2022-10-23T10:33:22.095Z,14.12
2022-10-23T10:37:57.791Z,14.14
2022-10-23T10:42:20.282Z,14.21
2022-10-23T10:46:51.091Z,14.26
2022-10-23T10:51:26.853Z,14.34
2022-10-23T10:55:38.834Z,14.40
2022-10-23T10:59:46.027Z,14.46
2022-10-23T11:03:57.704Z,14.52
2022-10-23T11:08:11.355Z,14.60
2022-10-23T11:12:19.687Z,14.68
2022-10-23T11:16:30.052Z,14.73
2022-10-23T11:20:45.263Z,14.80
2022-10-23T11:25:09.183Z,14.87
2022-10-23T11:29:40.977Z,14.96
2022-10-23T11:34:07.644Z,15.03
2022-10-23T11:38:17.220Z,15.14
2022-10-23T11:42:45.583Z,15.24
2022-10-23T11:46:47.901Z,15.35
2022-10-23T11:50:53.689Z,15.41
2022-10-23T11:55:20.756Z,15.49
2022-10-23T11:59:37.047Z,15.55
2022-10-23T12:03:51.158Z,15.63
2022-10-23T12:08:02.620Z,15.69
2022-10-23T12:12:07.258Z,15.75
2022-10-23T12:16:08.970Z,15.80
2022-10-23T12:20:13.487Z,15.84
2022-10-23T12:24:34.812Z,15.89
2022-10-23T12:28:55.132Z,15.93
2022-10-23T12:33:06.426Z,15.96
2022-10-23T12:37:54.765Z,16.00
2022-10-23T12:41:57.342Z,16.05
2022-10-23T12:46:17.726Z,16.11
2022-10-23T12:50:25.570Z,16.16
2022-10-23T12:54:28.055Z,16.20
2022-10-23T12:58:33.266Z,16.23
2022-10-23T13:02:38.480Z,16.28
2022-10-23T13:06:40.614Z,16.30
2022-10-23T13:10:42.673Z,16.34
2022-10-23T13:15:01.375Z,16.37
2022-10-23T13:19:03.232Z,16.41
2022-10-23T13:23:07.856Z,16.45
2022-10-23T13:27:31.449Z,16.46
2022-10-23T13:31:33.786Z,16.48
2022-10-23T13:35:37.429Z,16.51
2022-10-23T13:39:39.087Z,16.53
2022-10-23T13:43:41.474Z,16.55
2022-10-23T13:47:43.356Z,16.58
2022-10-23T13:51:51.361Z,16.61
2022-10-23T13:55:56.294Z,16.63
2022-10-23T14:00:00.335Z,16.66
2022-10-23T14:04:06.881Z,16.67
2022-10-23T14:08:08.759Z,16.68
2022-10-23T14:12:11.982Z,16.67
2022-10-23T14:16:15.668Z,16.67
2022-10-23T14:20:19.149Z,16.67
2022-10-23T14:24:21.407Z,16.68
2022-10-23T14:28:23.127Z,16.71
2022-10-23T14:32:25.128Z,16.74
2022-10-23T14:36:34.276Z,16.79
2022-10-23T14:40:45.143Z,16.82
2022-10-23T14:44:49.435Z,16.86
2022-10-23T14:48:57.448Z,16.88
2022-10-23T14:57:22.543Z,16.88
2022-10-23T15:01:24.274Z,16.86
2022-10-23T15:05:26.193Z,16.82
2022-10-23T15:09:27.948Z,16.77
2022-10-23T15:13:29.986Z,16.75
2022-10-23T15:17:32.479Z,16.71
2022-10-23T15:21:34.475Z,16.68
2022-10-23T15:25:36.251Z,16.66
2022-10-23T15:29:37.905Z,16.63
2022-10-23T15:33:39.826Z,16.59
2022-10-23T15:37:41.681Z,16.56
2022-10-23T15:41:44.283Z,16.54
2022-10-23T15:45:46.021Z,16.53
2022-10-23T15:49:47.728Z,16.51
2022-10-23T15:53:49.529Z,16.49
2022-10-23T15:57:51.190Z,16.48
2022-10-23T16:01:53.262Z,16.49
2022-10-23T16:05:54.995Z,16.47
2022-10-23T16:09:59.564Z,16.44
2022-10-23T16:14:03.188Z,16.42
2022-10-23T16:18:05.051Z,16.40
2022-10-23T16:22:07.794Z,16.37
2022-10-23T16:26:09.723Z,16.38
2022-10-23T16:30:14.184Z,16.37
2022-10-23T16:34:16.273Z,16.38
2022-10-23T16:38:18.062Z,16.36
2022-10-23T16:42:19.688Z,16.36
2022-10-23T16:46:47.370Z,16.33
2022-10-23T16:50:49.026Z,16.29
2022-10-23T16:54:50.707Z,16.28
2022-10-23T16:58:52.420Z,16.23
2022-10-23T17:02:54.130Z,16.22
2022-10-23T17:06:55.929Z,16.17
2022-10-23T17:11:13.134Z,16.15
2022-10-23T17:15:14.794Z,16.13
2022-10-23T17:19:44.515Z,16.11
2022-10-23T17:23:41.255Z,16.12
2022-10-23T17:27:43.356Z,16.12
2022-10-23T17:31:47.986Z,16.11
2022-10-23T17:35:49.743Z,16.08
2022-10-23T17:39:51.457Z,16.09
2022-10-23T17:43:57.620Z,16.12
2022-10-23T17:47:59.405Z,16.13
2022-10-23T17:52:01.959Z,16.14
2022-10-23T17:56:05.558Z,16.16
2022-10-23T18:00:07.515Z,16.18
2022-10-23T18:04:14.771Z,16.21
2022-10-23T18:08:17.220Z,16.23
2022-10-23T18:12:18.949Z,16.26
2022-10-23T18:16:21.504Z,16.28
2022-10-23T18:20:23.214Z,16.29
2022-10-23T18:24:26.579Z,16.31
2022-10-23T18:28:29.848Z,16.32
2022-10-23T18:32:31.550Z,16.30
2022-10-23T18:36:37.491Z,16.30
2022-10-23T18:40:41.244Z,16.27
2022-10-23T18:44:47.006Z,16.23
2022-10-23T18:48:50.889Z,16.18
2022-10-23T18:52:53.034Z,16.15
2022-10-23T18:56:54.782Z,16.09
2022-10-23T19:00:56.479Z,16.08
2022-10-23T19:04:58.246Z,16.01
2022-10-23T19:08:59.952Z,15.74
2022-10-23T19:13:01.704Z,15.44
2022-10-23T19:17:08.170Z,15.25
2022-10-23T19:21:10.311Z,15.18
2022-10-23T19:25:15.382Z,15.17
2022-10-23T19:29:21.767Z,15.18
2022-10-23T19:33:23.431Z,15.13
2022-10-23T19:37:25.195Z,15.10
2022-10-23T19:41:26.891Z,15.02
2022-10-23T19:45:28.699Z,14.93
2022-10-23T19:49:30.549Z,14.83
2022-10-23T19:53:32.183Z,14.72
2022-10-23T19:57:34.005Z,14.63
2022-10-23T20:01:36.115Z,14.58
2022-10-23T20:05:38.066Z,14.51
2022-10-23T20:09:40.108Z,14.43
2022-10-23T20:13:41.838Z,14.36
2022-10-23T20:17:43.604Z,14.34
2022-10-23T20:21:48.098Z,14.32
2022-10-23T20:25:49.822Z,14.28
2022-10-23T20:29:51.881Z,14.23
2022-10-23T20:33:54.507Z,14.21
2022-10-23T20:37:56.211Z,14.22
2022-10-23T20:41:58.294Z,14.21
2022-10-23T20:46:04.992Z,14.20
2022-10-23T20:50:08.642Z,14.19
2022-10-23T20:54:10.810Z,14.19
2022-10-23T20:58:12.517Z,14.19
2022-10-23T21:02:14.250Z,14.22
2022-10-23T21:06:17.407Z,14.26
2022-10-23T21:10:19.095Z,14.30
2022-10-23T21:14:20.771Z,14.35
2022-10-23T21:18:40.991Z,14.36
2022-10-23T21:22:46.691Z,14.39
2022-10-23T21:26:48.513Z,14.42
2022-10-23T21:30:50.246Z,14.43
2022-10-23T21:34:52.066Z,14.46
2022-10-23T21:38:56.329Z,14.45
2022-10-23T21:42:58.014Z,14.45
2022-10-23T21:46:59.767Z,14.44
2022-10-23T21:51:01.972Z,14.41
2022-10-23T21:55:04.205Z,14.37
2022-10-23T21:59:12.648Z,14.34
2022-10-23T22:03:14.591Z,14.30
2022-10-23T22:07:16.398Z,14.28
2022-10-23T22:11:18.260Z,14.26
2022-10-23T22:15:20.080Z,14.24
2022-10-23T22:19:22.933Z,14.21
2022-10-23T22:23:24.829Z,14.22
2022-10-23T22:27:26.529Z,14.23
2022-10-23T22:31:32.414Z,14.24
2022-10-23T22:35:34.073Z,14.24
2022-10-23T22:39:35.757Z,14.28
2022-10-23T22:43:37.496Z,14.31
2022-10-23T22:47:39.427Z,14.32
2022-10-23T22:51:41.090Z,14.31
2022-10-23T22:55:43.228Z,14.28
2022-10-23T22:59:44.883Z,14.25
2022-10-23T23:03:47.171Z,14.23
2022-10-23T23:07:48.878Z,14.20
2022-10-23T23:11:52.543Z,14.20
2022-10-23T23:15:55.024Z,14.18
2022-10-23T23:19:56.741Z,14.18
2022-10-23T23:23:58.869Z,14.16
2022-10-23T23:28:00.647Z,14.17
2022-10-23T23:32:02.310Z,14.19
2022-10-23T23:36:11.589Z,14.23
2022-10-23T23:40:14.492Z,14.26
2022-10-23T23:44:16.162Z,14.30
2022-10-23T23:48:17.917Z,14.31
2022-10-23T23:52:19.834Z,14.35
2022-10-23T23:56:22.309Z,14.36
